createdAt,value
2018-05-17T00:02:22.505Z,13.70
2018-05-17T00:04:51.810Z,13.23
2018-05-17T00:07:21.563Z,14.73
2018-05-17T00:09:51.062Z,13.25
2018-05-17T00:12:20.711Z,14.07
2018-05-17T00:14:50.102Z,13.90
2018-05-17T00:17:20.178Z,18.73
2018-05-17T00:19:49.536Z,15.95
2018-05-17T00:22:19.604Z,15.45
2018-05-17T00:24:48.915Z,14.85
2018-05-17T00:27:18.232Z,15.38
2018-05-17T00:29:47.519Z,17.52
2018-05-17T00:32:16.863Z,14.98
2018-05-17T00:34:46.928Z,16.30
2018-05-17T00:37:16.251Z,14.32
2018-05-17T00:39:45.549Z,14.90
2018-05-17T00:42:14.875Z,16.17
2018-05-17T00:44:44.969Z,16.52
2018-05-17T00:47:14.554Z,15.88
2018-05-17T00:49:45.268Z,15.82
2018-05-17T00:52:14.868Z,15.88
2018-05-17T00:54:45.629Z,16.20
2018-05-17T00:57:16.678Z,16.08
2018-05-17T00:59:46.462Z,17.50
2018-05-17T01:02:16.308Z,19.65
2018-05-17T01:04:46.143Z,18.40
2018-05-17T01:07:15.792Z,18.87
2018-05-17T01:09:45.373Z,17.73
2018-05-17T01:12:15.955Z,16.15
2018-05-17T01:14:46.875Z,16.62
2018-05-17T01:17:16.357Z,20.40
2018-05-17T01:19:45.862Z,16.75
2018-05-17T01:22:16.371Z,16.75
2018-05-17T01:24:45.745Z,19.15
2018-05-17T01:27:15.042Z,17.37
2018-05-17T01:29:44.342Z,18.45
2018-05-17T01:32:13.654Z,16.77
2018-05-17T01:34:42.959Z,18.17
2018-05-17T01:37:29.884Z,19.90
2018-05-17T01:39:59.952Z,18.00
2018-05-17T01:42:29.239Z,23.38
2018-05-17T01:44:58.565Z,23.52
2018-05-17T01:47:27.887Z,20.80
2018-05-17T01:49:57.175Z,22.20
2018-05-17T01:52:26.491Z,22.20
2018-05-17T01:54:55.804Z,20.62
2018-05-17T01:57:25.091Z,24.12
2018-05-17T01:59:54.399Z,26.10
2018-05-17T02:02:23.678Z,22.85
2018-05-17T02:04:52.996Z,29.27
2018-05-17T02:07:22.286Z,27.67
2018-05-17T02:09:51.590Z,29.27
2018-05-17T02:12:20.878Z,29.40
2018-05-17T02:14:50.230Z,30.58
2018-05-17T02:17:19.782Z,28.75
2018-05-17T02:19:49.076Z,30.50
2018-05-17T02:22:18.388Z,30.33
2018-05-17T02:24:47.671Z,32.88
2018-05-17T02:27:16.975Z,31.27
2018-05-17T02:29:46.266Z,30.20
2018-05-17T02:32:15.574Z,37.13
2018-05-17T02:34:44.866Z,36.42
2018-05-17T02:37:14.181Z,30.23
2018-05-17T02:39:43.475Z,36.83
2018-05-17T02:42:12.774Z,37.80
2018-05-17T02:44:42.088Z,35.53
2018-05-17T02:47:11.375Z,38.45
2018-05-17T02:49:40.687Z,36.15
2018-05-17T02:52:09.977Z,37.83
2018-05-17T02:54:39.281Z,38.15
2018-05-17T02:57:08.600Z,38.47
2018-05-17T02:59:37.897Z,36.67
2018-05-17T03:02:07.196Z,38.33
2018-05-17T03:04:36.503Z,41.33
2018-05-17T03:07:05.784Z,39.05
2018-05-17T03:09:35.102Z,41.47
2018-05-17T03:12:04.401Z,35.30
2018-05-17T03:14:33.704Z,45.58
2018-05-17T03:17:03.007Z,41.40
2018-05-17T03:19:32.318Z,38.97
2018-05-17T03:22:01.609Z,37.58
2018-05-17T03:24:30.910Z,37.75
2018-05-17T03:27:00.211Z,36.03
2018-05-17T03:29:29.530Z,35.47
2018-05-17T03:31:58.818Z,36.72
2018-05-17T03:34:28.131Z,32.67
2018-05-17T03:36:57.446Z,32.80
2018-05-17T03:39:26.752Z,33.67
2018-05-17T03:41:56.809Z,35.25
2018-05-17T03:44:26.122Z,38.03
2018-05-17T03:46:55.421Z,36.42
2018-05-17T03:49:24.854Z,37.08
2018-05-17T03:51:54.272Z,38.10
2018-05-17T03:54:24.827Z,36.45
2018-05-17T03:56:54.631Z,37.00
2018-05-17T03:59:24.253Z,31.00
2018-05-17T04:02:11.838Z,31.23
2018-05-17T04:04:59.412Z,30.70
2018-05-17T04:07:28.724Z,29.73
2018-05-17T04:09:58.303Z,30.00
2018-05-17T04:12:27.892Z,26.05
2018-05-17T04:14:58.178Z,26.08
2018-05-17T04:17:27.902Z,27.20
2018-05-17T04:19:58.931Z,27.62
2018-05-17T04:22:31.772Z,30.45
2018-05-17T04:25:03.525Z,29.83
2018-05-17T04:27:34.617Z,26.37
2018-05-17T04:30:05.689Z,25.80
2018-05-17T04:32:35.371Z,23.90
2018-05-17T04:35:05.436Z,21.67
2018-05-17T04:37:35.779Z,20.10
2018-05-17T04:40:05.597Z,21.75
2018-05-17T04:42:35.008Z,20.45
2018-05-17T04:45:04.803Z,21.20
2018-05-17T04:47:34.108Z,20.98
2018-05-17T04:50:03.422Z,21.67
2018-05-17T04:52:33.278Z,24.25
2018-05-17T04:55:03.334Z,22.23
2018-05-17T04:57:36.056Z,23.50
2018-05-17T05:00:05.691Z,24.30
2018-05-17T05:02:35.212Z,27.23
2018-05-17T05:05:04.502Z,28.33
2018-05-17T05:07:33.975Z,31.50
2018-05-17T05:10:03.759Z,29.27
2018-05-17T05:12:33.295Z,34.10
2018-05-17T05:15:02.595Z,32.22
2018-05-17T05:17:31.925Z,38.25
2018-05-17T05:20:01.263Z,36.13
2018-05-17T05:22:30.581Z,41.50
2018-05-17T05:25:00.158Z,43.30
2018-05-17T05:27:31.546Z,36.40
2018-05-17T05:30:01.212Z,42.83
2018-05-17T05:32:30.805Z,46.17
2018-05-17T05:35:00.372Z,44.58
2018-05-17T05:37:30.090Z,48.03
2018-05-17T05:40:01.074Z,49.75
2018-05-17T05:42:32.972Z,49.10
2018-05-17T05:45:05.338Z,49.15
2018-05-17T05:47:38.581Z,45.33
2018-05-17T05:50:10.589Z,43.53
2018-05-17T05:52:40.171Z,48.80
2018-05-17T05:55:10.908Z,46.05
2018-05-17T05:57:41.843Z,46.50
2018-05-17T06:00:11.963Z,45.20
2018-05-17T06:02:42.191Z,51.13
2018-05-17T06:05:15.100Z,46.45
2018-05-17T06:07:45.706Z,43.00
2018-05-17T06:10:17.214Z,41.42
2018-05-17T06:12:49.851Z,45.97
2018-05-17T06:15:20.909Z,48.92
2018-05-17T06:17:53.468Z,46.47
2018-05-17T06:20:24.155Z,50.45
2018-05-17T06:22:54.314Z,47.55
2018-05-17T06:25:25.653Z,47.70
2018-05-17T06:27:56.826Z,47.30
2018-05-17T06:30:32.438Z,54.53
2018-05-17T06:33:03.274Z,52.10
2018-05-17T06:35:32.971Z,47.45
2018-05-17T06:38:02.857Z,49.70
2018-05-17T06:40:33.126Z,42.03
2018-05-17T06:43:03.276Z,42.47
2018-05-17T06:45:33.596Z,43.63
2018-05-17T06:48:02.939Z,42.58
2018-05-17T06:50:32.262Z,43.58
2018-05-17T06:53:13.936Z,39.08
2018-05-17T06:55:48.143Z,37.28
2018-05-17T06:58:21.009Z,45.15
2018-05-17T07:00:56.195Z,39.45
2018-05-17T07:03:30.465Z,35.63
2018-05-17T07:06:06.075Z,37.60
2018-05-17T07:08:35.507Z,40.70
2018-05-17T07:11:04.847Z,38.17
2018-05-17T07:13:34.157Z,34.92
2018-05-17T07:16:03.490Z,38.63
2018-05-17T07:18:32.902Z,38.95
2018-05-17T07:21:02.303Z,38.17
2018-05-17T07:23:31.828Z,39.63
2018-05-17T07:26:24.205Z,35.10
2018-05-17T07:33:42.419Z,36.72
2018-05-17T07:46:15.580Z,24.02
2018-05-17T07:49:07.611Z,22.15
2018-05-17T07:51:56.338Z,23.17
2018-05-17T07:54:45.499Z,31.98
2018-05-17T07:57:46.045Z,20.85
2018-05-17T08:00:34.893Z,27.15
2018-05-17T08:03:40.195Z,21.90
2018-05-17T08:11:58.045Z,25.02
2018-05-17T08:14:36.213Z,21.85
2018-05-17T08:17:12.613Z,22.30
2018-05-17T08:19:54.289Z,27.83
2018-05-17T08:30:46.701Z,33.50
2018-05-17T08:33:26.925Z,33.67
2018-05-17T08:36:06.556Z,33.42
2018-05-17T08:38:42.276Z,37.78
2018-05-17T08:41:24.413Z,38.40
2018-05-17T08:44:09.744Z,47.92
2018-05-17T08:46:48.811Z,51.97
2018-05-17T08:49:29.766Z,44.90
2018-05-17T08:52:09.820Z,61.25
2018-05-17T09:00:06.860Z,47.47
2018-05-17T09:02:45.222Z,43.13
2018-05-17T09:08:21.165Z,57.65
2018-05-17T09:11:03.697Z,49.88
2018-05-17T09:13:40.469Z,47.22
2018-05-17T09:16:21.532Z,49.88
2018-05-17T09:19:09.145Z,49.13
2018-05-17T09:21:51.168Z,48.78
2018-05-17T09:24:28.252Z,42.72
2018-05-17T09:27:09.781Z,43.83
2018-05-17T09:29:48.366Z,47.13
2018-05-17T09:32:29.633Z,40.33
2018-05-17T09:37:44.606Z,41.25
2018-05-17T09:40:23.832Z,53.70
2018-05-17T09:43:02.131Z,44.13
2018-05-17T09:48:21.123Z,51.15
2018-05-17T09:53:48.322Z,43.78
2018-05-17T09:56:31.837Z,39.28
2018-05-17T09:59:28.687Z,40.60
2018-05-17T10:02:02.064Z,41.25
2018-05-17T10:10:27.755Z,41.70
2018-05-17T10:13:26.065Z,42.33
2018-05-17T10:16:21.875Z,36.35
2018-05-17T10:19:04.038Z,37.25
2018-05-17T10:21:37.665Z,35.65
2018-05-17T10:24:27.551Z,41.42
2018-05-17T10:34:00.634Z,47.22
2018-05-17T10:36:50.044Z,39.15
2018-05-17T10:42:10.444Z,36.42
2018-05-17T10:44:51.033Z,35.97
2018-05-17T10:47:37.730Z,32.80
2018-05-17T10:50:19.664Z,43.33
2018-05-17T10:53:00.530Z,37.30
2018-05-17T11:01:08.451Z,39.20
2018-05-17T11:03:48.541Z,37.63
2018-05-17T11:06:27.068Z,34.72
2018-05-17T11:09:08.060Z,37.90
2018-05-17T11:11:46.367Z,36.50
2018-05-17T11:14:23.435Z,38.00
2018-05-17T11:19:45.285Z,37.75
2018-05-17T11:22:20.778Z,37.05
2018-05-17T11:25:03.541Z,33.22
2018-05-17T11:27:47.360Z,39.90
2018-05-17T11:30:29.244Z,37.25
2018-05-17T11:33:02.599Z,37.17
2018-05-17T11:35:46.881Z,31.33
2018-05-17T11:38:27.559Z,34.25
2018-05-17T11:47:05.386Z,42.50
2018-05-17T11:49:39.729Z,42.35
2018-05-17T11:52:18.951Z,41.95
2018-05-17T11:54:49.418Z,42.33
2018-05-17T11:57:25.194Z,33.38
2018-05-17T12:02:51.974Z,37.55
2018-05-17T12:05:38.046Z,31.55
2018-05-17T12:08:27.944Z,36.42
2018-05-17T12:11:07.272Z,43.63
2018-05-17T12:16:42.267Z,34.33
2018-05-17T12:19:25.287Z,35.30
2018-05-17T12:22:16.078Z,39.00
2018-05-17T12:27:46.458Z,41.13
2018-05-17T12:30:32.802Z,39.85
2018-05-17T12:33:20.863Z,30.80
2018-05-17T12:38:32.205Z,34.63
2018-05-17T12:41:06.610Z,37.88
2018-05-17T12:43:36.214Z,34.90
2018-05-17T12:48:52.311Z,36.33
2018-05-17T12:51:27.299Z,34.72
2018-05-17T12:54:02.731Z,37.45
2018-05-17T12:56:41.361Z,32.17
2018-05-17T12:59:27.297Z,33.47
2018-05-17T13:02:38.538Z,31.00
2018-05-17T13:05:32.204Z,35.70
2018-05-17T13:08:22.087Z,33.35
2018-05-17T13:13:53.369Z,35.72
2018-05-17T13:25:30.238Z,32.67
2018-05-17T13:28:21.633Z,31.58
2018-05-17T13:30:56.868Z,24.98
2018-05-17T13:33:32.698Z,33.95
2018-05-17T13:36:15.478Z,34.00
2018-05-17T13:38:55.962Z,28.10
2018-05-17T13:41:39.074Z,28.08
2018-05-17T13:47:16.913Z,30.35
2018-05-17T13:49:58.112Z,26.77
2018-05-17T13:52:44.395Z,29.75
2018-05-17T13:58:25.616Z,34.15
2018-05-17T14:01:10.519Z,28.92
2018-05-17T14:06:45.850Z,24.58
2018-05-17T14:11:59.668Z,27.87
2018-05-17T14:14:41.012Z,28.75
2018-05-17T14:20:01.962Z,28.67
2018-05-17T14:22:39.023Z,18.75
2018-05-17T14:30:48.396Z,32.28
2018-05-17T14:33:26.171Z,34.03
2018-05-17T14:36:04.562Z,23.23
2018-05-17T14:38:40.262Z,20.35
2018-05-17T14:41:17.248Z,21.50
2018-05-17T14:44:02.159Z,27.67
2018-05-17T14:46:55.229Z,21.20
2018-05-17T14:52:12.988Z,26.70
2018-05-17T14:57:32.318Z,24.65
2018-05-17T15:03:02.526Z,34.47
2018-05-17T15:05:47.080Z,23.70
2018-05-17T15:08:32.020Z,21.48
2018-05-17T15:11:14.745Z,23.70
2018-05-17T15:13:50.103Z,23.90
2018-05-17T15:16:25.854Z,25.40
2018-05-17T15:19:12.565Z,24.37
2018-05-17T15:21:52.515Z,29.98
2018-05-17T15:24:32.530Z,22.37
2018-05-17T15:27:06.349Z,24.60
2018-05-17T15:29:36.979Z,22.90
2018-05-17T15:32:06.807Z,19.33
2018-05-17T15:34:43.379Z,21.00
2018-05-17T15:37:16.303Z,21.67
2018-05-17T15:39:47.879Z,21.05
2018-05-17T15:42:18.953Z,27.15
2018-05-17T15:44:48.249Z,26.42
2018-05-17T15:47:18.338Z,20.42
2018-05-17T15:49:50.514Z,25.23
2018-05-17T15:52:23.565Z,21.48
2018-05-17T15:55:07.886Z,17.25
2018-05-17T15:57:49.875Z,16.27
2018-05-17T16:00:23.046Z,21.40
2018-05-17T16:02:53.388Z,19.23
2018-05-17T16:10:43.934Z,18.42
2018-05-17T16:13:17.038Z,25.62
2018-05-17T16:15:46.401Z,18.25
2018-05-17T16:18:17.893Z,16.05
2018-05-17T16:20:52.030Z,20.50
2018-05-17T16:23:27.967Z,17.45
2018-05-17T16:26:14.608Z,26.35
2018-05-17T16:34:38.249Z,17.67
2018-05-17T16:37:11.233Z,13.38
2018-05-17T16:39:41.523Z,16.85
2018-05-17T16:42:13.604Z,15.95
2018-05-17T16:44:47.310Z,23.33
2018-05-17T16:47:24.973Z,22.25
2018-05-17T16:52:45.164Z,23.70
2018-05-17T16:55:25.707Z,15.50
2018-05-17T16:58:23.915Z,18.33
2018-05-17T17:01:11.658Z,19.62
2018-05-17T17:03:51.395Z,22.73
2018-05-17T17:06:36.485Z,19.42
2018-05-17T17:09:19.526Z,24.30
2018-05-17T17:11:55.719Z,17.75
2018-05-17T17:14:31.294Z,21.17
2018-05-17T17:17:12.190Z,23.98
2018-05-17T17:20:03.685Z,36.58
2018-05-17T17:22:56.758Z,19.95
2018-05-17T17:25:37.243Z,24.87
2018-05-17T17:31:07.997Z,25.95
2018-05-17T17:33:52.872Z,23.38
2018-05-17T17:39:33.927Z,26.33
2018-05-17T17:42:21.586Z,25.90
2018-05-17T17:45:11.538Z,24.85
2018-05-17T17:50:44.600Z,22.23
2018-05-17T17:56:15.818Z,29.60
2018-05-17T17:58:54.896Z,23.85
2018-05-17T18:07:22.416Z,23.87
2018-05-17T18:12:43.891Z,26.12
2018-05-17T18:15:19.974Z,23.15
2018-05-17T18:17:56.077Z,22.70
2018-05-17T18:20:34.030Z,25.30
2018-05-17T18:23:19.104Z,25.12
2018-05-17T18:25:57.294Z,29.65
2018-05-17T18:28:34.381Z,23.87
2018-05-17T18:31:09.241Z,23.65
2018-05-17T18:33:42.990Z,27.55
2018-05-17T18:36:25.168Z,29.30
2018-05-17T18:42:13.103Z,27.87
2018-05-17T19:00:40.763Z,30.17
2018-05-17T19:03:29.812Z,29.40
2018-05-17T19:06:07.355Z,21.33
2018-05-17T19:09:13.143Z,29.15
2018-05-17T19:14:40.523Z,30.92
2018-05-17T19:23:26.925Z,26.40
2018-05-17T19:26:10.616Z,23.98
2018-05-17T19:28:47.733Z,28.62
2018-05-17T19:31:29.000Z,19.35
2018-05-17T19:34:04.678Z,25.27
2018-05-17T19:36:44.748Z,28.85
2018-05-17T19:39:32.764Z,24.95
2018-05-17T19:42:12.302Z,26.77
2018-05-17T19:48:09.219Z,34.78
2018-05-17T19:59:04.573Z,28.12
2018-05-17T20:04:29.922Z,26.12
2018-05-17T20:07:18.151Z,22.58
2018-05-17T20:10:00.283Z,31.62
2018-05-17T20:12:39.823Z,29.52
2018-05-17T20:21:07.140Z,27.45
2018-05-17T20:23:43.381Z,25.08
2018-05-17T20:31:47.091Z,26.08
2018-05-17T20:34:25.948Z,28.20
2018-05-17T20:37:09.295Z,24.30
2018-05-17T20:39:58.160Z,25.12
2018-05-17T20:45:19.920Z,23.77
2018-05-17T20:47:57.059Z,24.98
2018-05-17T20:53:11.714Z,29.58
2018-05-17T21:01:14.634Z,26.50
2018-05-17T21:03:56.773Z,31.30
2018-05-17T21:06:53.421Z,26.50
2018-05-17T21:09:35.490Z,34.50
2018-05-17T21:12:13.926Z,29.08
2018-05-17T21:15:01.718Z,31.10
2018-05-17T21:17:50.574Z,32.08
2018-05-17T21:20:29.402Z,35.45
2018-05-17T21:23:08.309Z,35.70
2018-05-17T21:26:06.964Z,28.08
2018-05-17T21:28:40.384Z,34.80
2018-05-17T21:31:13.495Z,24.52
2018-05-17T21:33:54.950Z,27.67
2018-05-17T21:36:37.989Z,30.33
2018-05-17T21:39:20.963Z,26.83
2018-05-17T21:42:01.876Z,29.25
2018-05-17T21:47:16.892Z,32.38
2018-05-17T21:49:56.648Z,37.05
2018-05-17T21:52:30.915Z,32.38
2018-05-17T21:55:03.681Z,28.85
2018-05-17T21:57:41.748Z,35.63
2018-05-17T22:00:17.824Z,33.53
2018-05-17T22:03:01.185Z,32.28
2018-05-17T22:05:42.792Z,28.02
2018-05-17T22:08:15.851Z,31.42
2018-05-17T22:10:50.286Z,33.13
2018-05-17T22:13:31.151Z,28.70
2018-05-17T22:16:08.866Z,31.50
2018-05-17T22:18:43.713Z,29.65
2018-05-17T22:21:19.432Z,35.78
2018-05-17T22:24:01.884Z,41.60
2018-05-17T22:26:37.203Z,29.50
2018-05-17T22:29:08.903Z,30.83
2018-05-17T22:31:43.505Z,29.75
2018-05-17T22:34:14.033Z,31.98
2018-05-17T22:36:48.318Z,33.88
2018-05-17T22:39:20.488Z,35.40
2018-05-17T22:41:58.424Z,34.30
2018-05-17T22:44:34.390Z,29.30
2018-05-17T22:47:05.853Z,36.63
2018-05-17T22:49:41.572Z,33.28
2018-05-17T22:52:16.240Z,32.80
2018-05-17T22:54:48.429Z,33.75
2018-05-17T22:57:35.361Z,33.25
2018-05-17T23:00:06.068Z,45.12
2018-05-17T23:02:35.567Z,33.88
2018-05-17T23:05:08.872Z,35.70
2018-05-17T23:07:40.412Z,42.92
2018-05-17T23:10:15.694Z,34.65
2018-05-17T23:12:50.350Z,33.75
2018-05-17T23:15:28.854Z,29.35
2018-05-17T23:18:02.211Z,37.72
2018-05-17T23:20:34.792Z,32.80
2018-05-17T23:23:07.269Z,37.72
2018-05-17T23:25:37.666Z,39.35
2018-05-17T23:28:11.839Z,34.78
2018-05-17T23:30:43.808Z,30.25
2018-05-17T23:33:14.434Z,29.70
2018-05-17T23:35:45.673Z,42.22
2018-05-17T23:38:17.490Z,32.38
2018-05-17T23:41:15.389Z,36.35
2018-05-17T23:43:45.895Z,34.17
2018-05-17T23:46:19.596Z,37.03
2018-05-17T23:48:52.126Z,29.85
2018-05-17T23:51:22.571Z,31.42
2018-05-17T23:53:53.193Z,35.97
2018-05-17T23:56:26.175Z,33.38
2018-05-17T23:58:56.729Z,33.30
